• Join FlightAware (Why Join?)
  • Login
  • US Flag 
07:59AM EDT


 

Airport Tracker/Info


-or-


 

Live Flight TrackerFlight Track Log ✈ AAL993 ✈ 18-Feb-2014 ✈ KMIA - MNMG / MGA

Flight Track Log - Related Links

Times and Time Zones

All times are in EST time to prevent confusion due to time zone crossing. See the AAL993 flight status page for this flight to view local times or setup timezone preferences in your user account.

Time Position Orientation Groundspeed Altitude Reporting Facility
EST Latitude Longitude Course Direction KTS MPH feet Rate Location/Type
06:44PM 25.7986 -80.2583 207° Southwest 186 214 1,200  Level Miami Center
06:45PM 25.7808 -80.2117 113° Southeast 208 239 2,600 1,620 Climbing Miami Center
06:46PM 25.7653 -80.1558 107° East 250 288 4,100 1,440 Climbing Miami Center
06:47PM 25.7058 -80.1081 144° Southeast 242 278 5,300 1,260 Climbing Miami Center
06:48PM 25.6319 -80.1431 203° Southwest 223 257 6,700 2,100 Climbing Miami Center
06:49PM 25.3900 -80.3583 209° Southwest  Level FlightAware Approximate
06:49PM 25.5600 -80.1847 208° Southwest 247 284 9,500  Level Miami Center
06:50PM 25.2959 -80.4143 207° Southwest  Level FlightAware Approximate
06:50PM 25.4817 -80.2264 206° Southwest 288 331 11,600  Level Miami Center
06:51PM 25.3950 -80.2722 206° Southwest 323 372 14,000 2,520 Climbing Miami Center
06:52PM 25.3061 -80.3181 205° Southwest 348 400 16,700 2,460 Climbing Miami Center
06:53PM 25.2111 -80.3658 204° Southwest 360 414 19,000 2,340 Climbing Miami Center
06:54PM 25.1181 -80.4136 205° Southwest 365 420 21,400 2,160 Climbing Miami Center
06:55PM 25.0208 -80.4614 204° Southwest 370 426 23,400 1,920 Climbing Miami Center
06:56PM 24.9192 -80.5133 205° Southwest 386 444 25,300 1,680 Climbing Miami Center
06:57PM 24.8178 -80.5653 205° Southwest 396 456 26,800 1,380 Climbing Miami Center
06:58PM 24.7119 -80.6169 204° Southwest 407 468 28,100 1,080 Climbing Miami Center
06:59PM 24.6125 -80.6642 203° Southwest 419 482 29,000 420 Climbing Miami Center
07:00PM 24.4919 -80.7289 206° Southwest 431 496 29,000  Level Miami Center
07:01PM 24.3797 -80.7847 204° Southwest 436 502 29,000  Level Miami Center
07:02PM 24.2761 -80.8339 203° Southwest 441 507 29,000  Level Miami Center
07:03PM 24.1639 -80.8894 204° Southwest 446 513 29,000  Level Miami Center
07:04PM 24.0389 -80.9514 204° Southwest 446 513 29,000  Level Miami Center
07:05PM 23.9264 -81.0139 207° Southwest 446 513 29,000  Level Miami Center
07:06PM 23.8103 -81.0644 202° Southwest 446 513 29,000 -60 Level Miami Center
07:07PM 23.6978 -81.1219 205° Southwest 453 521 28,900  Descending Miami Center
07:08PM 23.5833 -81.1792 205° Southwest 453 521 29,000  Climbing Miami Center
07:09PM 23.4711 -81.2344 204° Southwest 448 516 29,000  Level Miami Center
07:10PM 23.3567 -81.2892 204° Southwest 448 516 29,000  Level Miami Center
07:11PM 23.2422 -81.3464 205° Southwest 448 516 29,000  Level Miami Center
07:12PM 23.1300 -81.4011 204° Southwest 448 516 29,000  Level Miami Center
07:13PM 23.0156 -81.4603 205° Southwest 448 516 29,000  Level Miami Center
07:14PM 22.8953 -81.4986 196° South 448 516 29,000  Level Miami Center
07:15PM 22.7750 -81.5394 197° South 453 521 29,000  Level Miami Center
07:16PM 22.6550 -81.5733 195° South 453 521 29,000  Level Miami Center
07:17PM 22.5367 -81.6208 200° South 453 521 29,000  Level Miami Center
07:18PM 22.4164 -81.6592 196° South 447 514 29,000  Level Miami Center
07:19PM 22.2964 -81.6975 196° South 447 514 29,000  Level Miami Center
07:20PM 22.1783 -81.7333 196° South 447 514 29,000 -60 Level Miami Center
07:21PM 22.0558 -81.7781 199° South 447 514 28,900 -60 Descending Miami Center
07:22PM 21.9356 -81.8206 198° South 452 520 28,900  Level Miami Center
07:23PM 21.8108 -81.8631 198° South 457 526 29,000  Climbing Miami Center
07:24PM 21.6906 -81.9031 197° South 457 526 29,000  Level Miami Center
07:25PM 21.5664 -81.9431 197° South 463 533 29,000  Level Miami Center
07:26PM 21.4417 -81.9850 197° South 469 540 29,000 -60 Level Miami Center
07:27PM 21.3194 -82.0228 196° South 469 540 28,900 -60 Descending Miami Center
07:28PM 21.1975 -82.0558 194° South 459 528 28,900  Level Miami Center
07:29PM 21.0769 -82.1047 201° Southwest 465 535 28,900  Level Miami Center
07:30PM 20.9547 -82.1422 196° South 465 535 29,000  Climbing Miami Center
07:31PM 20.8322 -82.1883 199° South 465 535 29,000  Level Miami Center
07:32PM 20.7225 -82.2264 198° South 465 535 29,000  Level Miami Center
07:33PM 20.6019 -82.2725 200° South 465 535 29,000  Level Miami Center
07:34PM 20.4794 -82.3164 199° South 465 535 29,000  Level Miami Center
07:36PM 20.4794 -82.3164 13° North 465 535 29,000  Level Miami Center
07:38PM 20.4794 -82.3164 13° North 465 535 29,000  Level Miami Center
07:40PM 20.4794 -82.3164 13° North 465 535 29,000  Level Miami Center
07:42PM 20.4794 -82.3164 13° North 465 535 29,000  Level Miami Center
07:44PM 20.4794 -82.3164 13° North 465 535 29,000  Level Miami Center
07:46PM 20.4794 -82.3164 13° North 465 535 29,000  Level Miami Center
07:48PM 20.4794 -82.3164 13° North 465 535 29,000  Level Miami Center
07:50PM 20.4794 -82.3164 13° North 465 535 29,000  Level Miami Center
07:52PM 20.4794 -82.3164 13° North 465 535 29,000  Level Miami Center
07:54PM 20.4794 -82.3164 13° North 465 535 29,000  Level Miami Center
07:56PM 20.4794 -82.3164 13° North 465 535 29,000  Level Miami Center
07:58PM 20.4794 -82.3164 13° North 465 535 29,000  Level Miami Center
08:00PM 20.4794 -82.3164 13° North 465 535 29,000  Level Miami Center
08:02PM 20.4794 -82.3164 13° North 465 535 29,000  Level Miami Center
08:04PM 20.4794 -82.3164 13° North 465 535 29,000  Level Miami Center
08:06PM 20.4794 -82.3164 13° North 465 535 29,000  Level Miami Center
08:08PM 20.4794 -82.3164 13° North 465 535 29,000  Level Miami Center
08:10PM 20.4794 -82.3164 13° North 465 535 29,000  Level Miami Center
08:12PM 20.4794 -82.3164 13° North 465 535 29,000  Level Miami Center
08:14PM 20.4794 -82.3164 13° North 465 535 29,000  Level Miami Center
08:16PM 20.4794 -82.3164 13° North 465 535 29,000  Level Miami Center
08:18PM 20.4794 -82.3164 13° North 465 535 29,000  Level Miami Center
08:20PM 20.4794 -82.3164 13° North 465 535 29,000  Level Miami Center
08:22PM 20.4794 -82.3164 13° North 465 535 29,000  Level Miami Center
08:24PM 20.4794 -82.3164 13° North 465 535 29,000  Level Miami Center
08:26PM 20.4794 -82.3164 13° North 465 535 29,000  Level Miami Center
08:28PM 20.4794 -82.3164 13° North 465 535 29,000  Level Miami Center
08:30PM 20.4794 -82.3164 13° North 465 535 29,000  Level Miami Center
08:32PM 20.4794 -82.3164 13° North 465 535 29,000  Level Miami Center
08:34PM 20.4794 -82.3164 13° North 465 535 29,000  Level Miami Center
08:36PM 20.4794 -82.3164 13° North 465 535 29,000  Level Miami Center
08:38PM 20.4794 -82.3164 13° North 465 535 29,000  Level Miami Center
08:40PM 20.4794 -82.3164 13° North 465 535 29,000  Level Miami Center
08:42PM 20.4794 -82.3164 13° North 465 535 29,000  Level Miami Center
08:44PM 20.4794 -82.3164 13° North 465 535 29,000  Level Miami Center
08:46PM 20.4794 -82.3164 13° North 465 535 29,000  Level Miami Center
08:48PM 20.4794 -82.3164 13° North 465 535 29,000  Level Miami Center
08:50PM 20.4794 -82.3164 13° North 465 535 29,000  Level Miami Center
08:52PM 20.4794 -82.3164 13° North 465 535 29,000  Level Miami Center
08:54PM 20.4794 -82.3164 13° North 465 535 29,000  Level Miami Center
08:56PM 20.4794 -82.3164 13° North 465 535 29,000  Level Miami Center
08:58PM 20.4794 -82.3164 13° North 465 535 29,000  Level Miami Center
09:00PM 20.4794 -82.3164 13° North 465 535 29,000  Level Miami Center
09:02PM 20.4794 -82.3164 13° North 465 535 29,000  Level Miami Center
09:04PM 20.4794 -82.3164 13° North 465 535 29,000  Level Miami Center
09:06PM 20.4794 -82.3164 13° North 465 535 29,000  Level Miami Center
09:08PM 20.4794 -82.3164 13° North 465 535 29,000  Level Miami Center
09:10PM 20.4794 -82.3164 13° North 465 535 29,000  Level Miami Center
09:12PM 20.4794 -82.3164 13° North 465 535 29,000  Level Miami Center
09:14PM 20.4794 -82.3164 13° North 465 535 29,000  Level Miami Center
09:16PM 20.4794 -82.3164 13° North 465 535 29,000  Level Miami Center
09:18PM 20.4794 -82.3164 13° North 465 535 29,000  Level Miami Center
09:20PM 20.4794 -82.3164 13° North 465 535 29,000  Level Miami Center
09:22PM 20.4794 -82.3164 13° North 465 535 29,000  Level Miami Center
09:24PM 20.4794 -82.3164 13° North 465 535 29,000  Level Miami Center
09:26PM 20.4794 -82.3164 13° North 465 535 29,000  Level Miami Center
09:28PM 20.4794 -82.3164 13° North 465 535 29,000  Level Miami Center
09:30PM 20.4794 -82.3164 13° North 465 535 29,000  Level Miami Center
09:32PM 20.4794 -82.3164 13° North 465 535 29,000  Level Miami Center
09:34PM 20.4794 -82.3164 13° North 465 535 29,000  Level Miami Center
09:36PM 20.4794 -82.3164 13° North 465 535 29,000  Level Miami Center
09:38PM 20.4794 -82.3164 13° North 465 535 29,000  Level Miami Center
09:40PM 20.4794 -82.3164 13° North 465 535 29,000  Level Miami Center
09:42PM 20.4794 -82.3164 13° North 465 535 29,000  Level Miami Center
09:44PM 20.4794 -82.3164 13° North 465 535 29,000  Level Miami Center
09:46PM 20.4794 -82.3164 13° North 465 535 29,000  Level Miami Center
09:48PM 20.4794 -82.3164 13° North 465 535 29,000  Level Miami Center
09:50PM 20.4794 -82.3164 13° North 465 535 29,000  Level Miami Center
09:52PM 20.4794 -82.3164 13° North 465 535 29,000  Level Miami Center
09:54PM 20.4794 -82.3164 13° North 465 535 29,000  Level Miami Center
09:56PM 20.4794 -82.3164 13° North 465 535 29,000  Level Miami Center
09:58PM 20.4794 -82.3164 13° North 465 535 29,000  Level Miami Center
10:00PM 20.4794 -82.3164 13° North 465 535 29,000  Level Miami Center
10:02PM 20.4794 -82.3164 13° North 465 535 29,000  Level Miami Center
10:04PM 20.4794 -82.3164 13° North 465 535 29,000  Level Miami Center
10:06PM 20.4794 -82.3164 13° North 465 535 29,000  Level Miami Center
10:08PM 20.4794 -82.3164 13° North 465 535 29,000  Level Miami Center
10:10PM 20.4794 -82.3164 13° North 465 535 29,000  Level Miami Center
10:12PM 20.4794 -82.3164 13° North 465 535 29,000  Level Miami Center
10:14PM 20.4794 -82.3164 13° North 465 535 29,000  Level Miami Center
10:16PM 20.4794 -82.3164 13° North 465 535 29,000  Level Miami Center
10:18PM 20.4794 -82.3164 13° North 465 535 29,000  Level Miami Center
10:20PM 20.4794 -82.3164 13° North 465 535 29,000  Level Miami Center
10:22PM 20.4794 -82.3164 13° North 465 535 29,000  Level Miami Center
10:24PM 20.4794 -82.3164 13° North 465 535 29,000  Level Miami Center
10:26PM 20.4794 -82.3164 13° North 465 535 29,000  Level Miami Center
10:28PM 20.4794 -82.3164 13° North 465 535 29,000  Level Miami Center
10:30PM 20.4794 -82.3164 13° North 465 535 29,000  Level Miami Center
10:32PM 20.4794 -82.3164 13° North 465 535 29,000  Level Miami Center
10:34PM 20.4794 -82.3164 13° North 465 535 29,000  Level Miami Center
10:36PM 20.4794 -82.3164 13° North 465 535 29,000  Level Miami Center
10:38PM 20.4794 -82.3164 13° North 465 535 29,000  Level Miami Center
10:40PM 20.4794 -82.3164 13° North 465 535 29,000  Level Miami Center
10:42PM 20.4794 -82.3164 13° North 465 535 29,000  Level Miami Center
10:44PM 20.4794 -82.3164 13° North 465 535 29,000  Level Miami Center
10:46PM 20.4794 -82.3164 13° North 465 535 29,000  Level Miami Center
10:48PM 20.4794 -82.3164 13° North 465 535 29,000  Level Miami Center
10:50PM 20.4794 -82.3164 13° North 465 535 29,000  Level Miami Center
10:52PM 20.4794 -82.3164 13° North 465 535 29,000  Level Miami Center
10:54PM 20.4794 -82.3164 13° North 465 535 29,000  Level Miami Center
10:56PM 20.4794 -82.3164 13° North 465 535 29,000  Level Miami Center
10:58PM 20.4794 -82.3164 13° North 465 535 29,000  Level Miami Center
11:00PM 20.4794 -82.3164 13° North 465 535 29,000  Level Miami Center
11:02PM 20.4794 -82.3164 13° North 465 535 29,000  Level Miami Center
11:04PM 20.4794 -82.3164 13° North 465 535 29,000  Level Miami Center
11:06PM 20.4794 -82.3164 13° North 465 535 29,000  Level Miami Center
11:08PM 20.4794 -82.3164 13° North 465 535 29,000  Level Miami Center
11:10PM 20.4794 -82.3164 13° North 465 535 29,000  Level Miami Center
11:12PM 20.4794 -82.3164 13° North 465 535 29,000  Level Miami Center
11:14PM 20.4794 -82.3164 13° North 465 535 29,000  Level Miami Center
11:16PM 20.4794 -82.3164 13° North 465 535 29,000  Level Miami Center
11:18PM 20.3225 -82.3510 192° South  Level FlightAware Approximate
11:25PM 19.5643 -82.6644 205° Southwest  Level FlightAware Approximate
11:26PM 19.4578 -82.7166 205° Southwest  Level FlightAware Approximate
11:27PM 19.3513 -82.7687 205° Southwest  Level FlightAware Approximate
11:28PM 19.2448 -82.8208 205° Southwest  Level FlightAware Approximate
11:29PM 19.1383 -82.8728 205° Southwest  Level FlightAware Approximate
11:30PM 19.0318 -82.9247 205° Southwest  Level FlightAware Approximate
11:31PM 18.9253 -82.9765 205° Southwest  Level FlightAware Approximate
11:32PM 18.8187 -83.0283 205° Southwest  Level FlightAware Approximate
11:33PM 18.7121 -83.0800 205° Southwest  Level FlightAware Approximate
11:34PM 18.6056 -83.1317 205° Southwest  Level FlightAware Approximate
11:35PM 18.4991 -83.1835 205° Southwest  Level FlightAware Approximate
11:36PM 18.3928 -83.2359 205° Southwest  Level FlightAware Approximate
11:37PM 18.2866 -83.2882 205° Southwest  Level FlightAware Approximate
11:38PM 18.1803 -83.3404 205° Southwest  Level FlightAware Approximate
11:39PM 18.0740 -83.3925 205° Southwest  Level FlightAware Approximate
11:40PM 17.9677 -83.4446 205° Southwest  Level FlightAware Approximate
11:41PM 17.8614 -83.4966 205° Southwest  Level FlightAware Approximate
11:42PM 17.7550 -83.5486 205° Southwest  Level FlightAware Approximate
11:43PM 17.6487 -83.6005 205° Southwest  Level FlightAware Approximate
11:44PM 17.5423 -83.6523 205° Southwest  Level FlightAware Approximate
11:45PM 17.4359 -83.7041 205° Southwest  Level FlightAware Approximate
11:46PM 17.3295 -83.7558 205° Southwest  Level FlightAware Approximate
11:47PM 17.2231 -83.8075 205° Southwest  Level FlightAware Approximate
11:48PM 17.1167 -83.8591 205° Southwest  Level FlightAware Approximate
11:49PM 17.0102 -83.9104 205° Southwest  Level FlightAware Approximate
11:50PM 16.9036 -83.9614 205° Southwest  Level FlightAware Approximate
11:51PM 16.7969 -84.0124 205° Southwest  Level FlightAware Approximate
11:52PM 16.6903 -84.0633 205° Southwest  Level FlightAware Approximate
11:53PM 16.5836 -84.1142 205° Southwest  Level FlightAware Approximate
11:54PM 16.4769 -84.1650 205° Southwest  Level FlightAware Approximate
11:55PM 16.3702 -84.2158 205° Southwest  Level FlightAware Approximate
11:56PM 16.2637 -84.2668 205° Southwest  Level FlightAware Approximate
11:57PM 16.1572 -84.3180 205° Southwest  Level FlightAware Approximate
11:58PM 16.0507 -84.3691 205° Southwest  Level FlightAware Approximate
11:59PM 15.9441 -84.4202 205° Southwest  Level FlightAware Approximate
12:00AM 15.8376 -84.4712 205° Southwest  Level FlightAware Approximate
12:01AM 15.7311 -84.5221 205° Southwest  Level FlightAware Approximate
12:02AM 15.6245 -84.5730 205° Southwest  Level FlightAware Approximate
12:03AM 15.5180 -84.6238 205° Southwest  Level FlightAware Approximate
12:04AM 15.4114 -84.6746 205° Southwest  Level FlightAware Approximate
12:05AM 15.3048 -84.7254 205° Southwest  Level FlightAware Approximate
12:06AM 15.1982 -84.7761 205° Southwest  Level FlightAware Approximate
12:07AM 15.0916 -84.8267 205° Southwest  Level FlightAware Approximate
12:08AM 14.9850 -84.8773 205° Southwest  Level FlightAware Approximate
12:09AM 14.8783 -84.9278 205° Southwest  Level FlightAware Approximate
12:10AM 14.7718 -84.9786 205° Southwest  Level FlightAware Approximate
12:11AM 14.6653 -85.0293 205° Southwest  Level FlightAware Approximate
12:12AM 14.5587 -85.0800 205° Southwest  Level FlightAware Approximate
12:13AM 14.4522 -85.1306 205° Southwest  Level FlightAware Approximate
12:14AM 14.3456 -85.1812 205° Southwest  Level FlightAware Approximate
12:15AM 14.2391 -85.2317 205° Southwest  Level FlightAware Approximate
12:16AM 14.1325 -85.2822 205° Southwest  Level FlightAware Approximate
12:17AM 14.0259 -85.3326 205° Southwest  Level FlightAware Approximate
12:18AM 13.9193 -85.3830 205° Southwest  Level FlightAware Approximate
12:19AM 13.8134 -85.4350 206° Southwest  Level FlightAware Approximate
12:20AM 13.7060 -85.4831 200° South  Level FlightAware Approximate
12:21AM 13.5968 -85.5266 206° Southwest  Level FlightAware Approximate
12:22AM 13.4913 -85.5794 206° Southwest  Level FlightAware Approximate
12:23AM 13.3858 -85.6321 206° Southwest  Level FlightAware Approximate
12:24AM 13.2789 -85.6816 203° Southwest  Level FlightAware Approximate
12:25AM 13.1713 -85.7295 203° Southwest  Level FlightAware Approximate
12:26AM 13.0636 -85.7773 203° Southwest  Level FlightAware Approximate
12:27AM 12.9546 -85.8215 201° Southwest  Level FlightAware Approximate
12:28AM 12.8459 -85.8667 203° Southwest  Level FlightAware Approximate
12:29AM 12.7383 -85.9145 203° Southwest  Level FlightAware Approximate
12:30AM 12.6297 -85.9599 202° Southwest  Level FlightAware Approximate
12:31AM 12.5210 -86.0050 201° Southwest  Level FlightAware Approximate
12:32AM 12.4117 -86.0487 201° Southwest  Level FlightAware Approximate